createdAt,value
2022-11-29T00:01:17.707Z,95959.38
2022-11-29T00:03:44.546Z,95959.09
2022-11-29T00:06:13.730Z,95958.84
2022-11-29T00:08:41.393Z,95956.16
2022-11-29T00:11:37.462Z,95951.91
2022-11-29T00:14:04.981Z,95950.03
2022-11-29T00:16:31.580Z,95947.91
2022-11-29T00:18:58.350Z,95946.56
2022-11-29T00:21:25.002Z,95946.84
2022-11-29T00:23:51.625Z,95949.25
2022-11-29T00:26:18.269Z,95957.50
2022-11-29T00:28:44.897Z,95952.47
2022-11-29T00:31:20.136Z,95948.44
2022-11-29T00:33:47.069Z,95941.28
2022-11-29T00:36:14.620Z,95944.44
2022-11-29T00:38:41.597Z,95942.31
2022-11-29T00:41:09.684Z,95939.94
2022-11-29T00:43:36.519Z,95938.59
2022-11-29T00:46:04.107Z,95939.13
2022-11-29T00:48:31.329Z,95941.78
2022-11-29T00:50:58.536Z,95948.72
2022-11-29T00:53:25.333Z,95946.84
2022-11-29T00:55:53.021Z,95949.78
2022-11-29T00:58:20.845Z,95946.31
2022-11-29T01:00:47.833Z,95945.78
2022-11-29T01:03:15.169Z,95947.66
2022-11-29T01:05:43.000Z,95946.84
2022-11-29T01:08:11.081Z,95946.34
2022-11-29T01:10:37.714Z,95948.72
2022-11-29T01:13:04.598Z,95952.97
2022-11-29T01:15:31.525Z,95949.78
2022-11-29T01:17:58.218Z,95952.44
2022-11-29T01:20:25.166Z,95954.56
2022-11-29T01:22:51.773Z,95948.47
2022-11-29T01:25:19.482Z,95956.97
2022-11-29T01:27:46.627Z,95958.56
2022-11-29T01:30:13.779Z,95949.78
2022-11-29T01:32:40.391Z,95951.66
2022-11-29T01:35:07.393Z,95951.66
2022-11-29T01:37:34.365Z,95954.31
2022-11-29T01:40:00.962Z,95958.31
2022-11-29T01:42:27.577Z,95951.38
2022-11-29T01:45:07.101Z,95947.66
2022-11-29T01:47:39.422Z,95957.25
2022-11-29T01:50:07.904Z,95950.28
2022-11-29T01:52:34.489Z,95953.16
2022-11-29T01:55:06.491Z,95959.78
2022-11-29T01:57:35.441Z,95955.03
2022-11-29T02:00:11.541Z,95956.13
2022-11-29T02:03:11.973Z,95949.22
2022-11-29T02:05:42.285Z,95956.66
2022-11-29T02:08:11.420Z,95958.81
2022-11-29T02:10:43.218Z,95970.78
2022-11-29T02:13:25.177Z,95963.09
2022-11-29T02:16:10.256Z,95962.81
2022-11-29T02:19:03.312Z,95965.22
2022-11-29T02:21:38.677Z,95971.03
2022-11-29T02:24:24.379Z,95965.19
2022-11-29T02:27:03.262Z,95968.09
2022-11-29T02:29:54.558Z,95962.56
2022-11-29T02:32:46.030Z,95966.00
2022-11-29T02:35:21.641Z,95956.13
2022-11-29T02:37:58.558Z,95963.56
2022-11-29T02:40:43.807Z,95965.19
2022-11-29T02:43:31.853Z,95971.56
2022-11-29T02:46:07.406Z,95971.47
2022-11-29T02:48:36.820Z,95971.66
2022-11-29T02:51:40.900Z,95968.34
2022-11-29T02:54:29.871Z,95977.34
2022-11-29T02:57:26.012Z,95978.34
2022-11-29T03:00:05.198Z,95989.50
2022-11-29T03:02:50.585Z,95993.66
2022-11-29T03:05:44.815Z,95986.06
2022-11-29T03:08:42.132Z,95986.72
2022-11-29T03:11:32.314Z,95992.00
2022-11-29T03:14:14.745Z,95993.94
2022-11-29T03:17:04.485Z,95994.25
2022-11-29T03:19:39.934Z,96001.97
2022-11-29T03:22:25.160Z,95994.25
2022-11-29T03:25:32.985Z,96003.13
2022-11-29T03:28:11.499Z,96004.75
2022-11-29T03:30:43.962Z,96006.91
2022-11-29T03:33:22.821Z,96002.44
2022-11-29T03:36:27.742Z,96013.31
2022-11-29T03:39:00.728Z,96016.25
2022-11-29T03:41:41.510Z,96020.59
2022-11-29T03:44:27.177Z,96012.13
2022-11-29T03:47:04.098Z,96025.28
2022-11-29T03:49:37.492Z,96019.28
2022-11-29T03:52:21.973Z,96019.84
2022-11-29T03:55:16.055Z,96025.69
2022-11-29T03:58:08.902Z,96021.41
2022-11-29T04:01:00.368Z,96019.28
2022-11-29T04:03:44.891Z,96018.75
2022-11-29T04:06:30.767Z,96023.00
2022-11-29T04:09:23.020Z,96014.00
2022-11-29T04:12:04.606Z,96019.28
2022-11-29T04:14:55.577Z,96022.00
2022-11-29T04:17:36.105Z,96025.81
2022-11-29T04:20:41.083Z,96018.38
2022-11-29T04:23:37.303Z,96018.63
2022-11-29T04:26:21.961Z,96022.34
2022-11-29T04:29:28.478Z,96022.31
2022-11-29T04:32:16.950Z,96025.44
2022-11-29T04:34:59.641Z,96029.97
2022-11-29T04:37:58.121Z,96036.38
2022-11-29T04:40:50.618Z,96032.66
2022-11-29T04:43:27.935Z,96031.53
2022-11-29T04:46:31.574Z,96036.94
2022-11-29T04:49:00.803Z,96030.06
2022-11-29T04:52:15.881Z,96035.41
2022-11-29T04:55:04.553Z,96040.13
2022-11-29T04:57:39.837Z,96043.34
2022-11-29T05:00:12.702Z,96046.72
2022-11-29T05:03:02.666Z,96048.91
2022-11-29T05:05:45.625Z,96040.16
2022-11-29T05:08:17.909Z,96047.63
2022-11-29T05:11:02.784Z,96043.94
2022-11-29T05:13:47.932Z,96055.09
2022-11-29T05:16:33.295Z,96051.50
2022-11-29T05:19:08.957Z,96047.66
2022-11-29T05:21:54.882Z,96064.38
2022-11-29T05:24:24.136Z,96057.63
2022-11-29T05:27:02.195Z,96060.88
2022-11-29T05:29:46.321Z,96061.97
2022-11-29T05:32:43.901Z,96058.22
2022-11-29T05:35:38.246Z,96053.25
2022-11-29T05:38:32.224Z,96056.91
2022-11-29T05:41:33.689Z,96065.56
2022-11-29T05:44:16.839Z,96067.66
2022-11-29T05:46:55.917Z,96066.50
2022-11-29T05:49:22.477Z,96075.75
2022-11-29T05:51:58.038Z,96073.63
2022-11-29T05:54:31.402Z,96076.38
2022-11-29T05:57:20.262Z,96071.50
2022-11-29T05:59:50.801Z,96082.06
2022-11-29T06:02:23.273Z,96070.06
2022-11-29T06:05:06.785Z,96081.03
2022-11-29T06:08:01.316Z,96068.56
2022-11-29T06:10:35.956Z,96068.59
2022-11-29T06:13:38.199Z,96072.28
2022-11-29T06:16:42.649Z,96064.63
2022-11-29T06:19:24.385Z,96069.44
2022-11-29T06:22:06.238Z,96071.03
2022-11-29T06:25:02.288Z,96073.25
2022-11-29T06:27:35.365Z,96073.00
2022-11-29T06:30:08.029Z,96075.13
2022-11-29T06:32:54.565Z,96084.94
2022-11-29T06:35:48.284Z,96081.03
2022-11-29T06:38:17.850Z,96088.47
2022-11-29T06:40:44.887Z,96084.22
2022-11-29T06:43:11.814Z,96087.88
2022-11-29T06:45:43.134Z,96093.53
2022-11-29T06:48:11.714Z,96104.00
2022-11-29T06:51:15.622Z,96096.28
2022-11-29T06:53:44.879Z,96103.00
2022-11-29T06:56:29.109Z,96092.88
2022-11-29T06:59:24.257Z,96102.59
2022-11-29T07:02:04.969Z,96096.13
2022-11-29T07:04:46.762Z,96099.63
2022-11-29T07:07:18.605Z,96090.63
2022-11-29T07:09:49.404Z,96096.28
2022-11-29T07:12:17.621Z,96108.31
2022-11-29T07:14:45.165Z,96102.59
2022-11-29T07:17:20.925Z,96104.00
2022-11-29T07:19:58.173Z,96103.00
2022-11-29T07:22:27.473Z,96099.63
2022-11-29T07:25:20.544Z,96101.19
2022-11-29T07:28:02.593Z,96105.00
2022-11-29T07:30:52.273Z,96096.28
2022-11-29T07:33:21.807Z,96106.88
2022-11-29T07:36:14.600Z,96108.44
2022-11-29T07:39:10.369Z,96108.75
2022-11-29T07:41:57.173Z,96108.03
2022-11-29T07:44:32.677Z,96111.16
2022-11-29T07:46:59.401Z,96121.13
2022-11-29T07:49:25.983Z,96123.41
2022-11-29T07:51:54.445Z,96131.63
2022-11-29T07:54:22.228Z,96126.16
2022-11-29T07:56:48.872Z,96119.19
2022-11-29T07:59:15.520Z,96122.69
2022-11-29T08:01:42.631Z,96123.06
2022-11-29T08:04:09.993Z,96120.25
2022-11-29T08:06:36.862Z,96124.84
2022-11-29T08:09:04.884Z,96128.44
2022-11-29T08:11:31.467Z,96122.94
2022-11-29T08:14:03.814Z,96127.34
2022-11-29T08:16:30.485Z,96118.59
2022-11-29T08:18:57.149Z,96121.78
2022-11-29T08:21:23.849Z,96132.06
2022-11-29T08:23:51.470Z,96127.03
2022-11-29T08:26:19.356Z,96126.34
2022-11-29T08:28:46.281Z,96127.09
2022-11-29T08:31:14.024Z,96134.75
2022-11-29T08:33:43.642Z,96127.22
2022-11-29T08:36:18.417Z,96128.03
2022-11-29T08:38:45.377Z,96135.09
2022-11-29T08:41:14.344Z,96121.09
2022-11-29T08:43:41.738Z,96127.44
2022-11-29T08:46:13.681Z,96130.09
2022-11-29T08:48:43.423Z,96130.19
2022-11-29T08:51:10.013Z,96127.72
2022-11-29T08:53:42.918Z,96126.50
2022-11-29T08:56:49.413Z,96131.81
2022-11-29T08:58:57.276Z,96135.34
2022-11-29T09:01:24.017Z,96130.69
2022-11-29T09:03:59.806Z,96131.81
2022-11-29T09:06:28.348Z,96130.19
2022-11-29T09:08:59.074Z,96138.63
2022-11-29T09:11:27.560Z,96132.53
2022-11-29T09:13:57.499Z,96135.59
2022-11-29T09:16:27.253Z,96141.16
2022-11-29T09:18:56.037Z,96144.56
2022-11-29T09:21:24.873Z,96142.56
2022-11-29T09:23:59.320Z,96142.06
2022-11-29T09:26:29.267Z,96142.09
2022-11-29T09:28:57.940Z,96141.47
2022-11-29T09:31:24.708Z,96146.13
2022-11-29T09:33:51.830Z,96145.16
2022-11-29T09:36:23.704Z,96133.97
2022-11-29T09:38:53.296Z,96140.94
2022-11-29T09:41:50.725Z,96139.19
2022-11-29T09:44:52.934Z,96137.25
2022-11-29T09:47:33.113Z,96137.97
2022-11-29T09:50:25.833Z,96146.44
2022-11-29T09:53:06.681Z,96138.50
2022-11-29T09:55:39.563Z,96148.19
2022-11-29T09:58:13.434Z,96147.50
2022-11-29T10:00:51.050Z,96148.47
2022-11-29T10:03:26.858Z,96150.75
2022-11-29T10:06:02.487Z,96149.59
2022-11-29T10:08:38.423Z,96146.25
2022-11-29T10:11:28.303Z,96142.47
2022-11-29T10:14:12.986Z,96143.06
2022-11-29T10:16:43.849Z,96143.72
2022-11-29T10:19:21.974Z,96149.56
2022-11-29T10:22:05.042Z,96146.28
2022-11-29T10:24:34.286Z,96144.47
2022-11-29T10:27:00.898Z,96134.47
2022-11-29T10:29:27.627Z,96146.28
2022-11-29T10:31:56.868Z,96135.88
2022-11-29T10:34:26.162Z,96130.25
2022-11-29T10:36:59.962Z,96122.81
2022-11-29T10:39:37.285Z,96122.53
2022-11-29T10:42:06.645Z,96122.47
2022-11-29T10:44:34.036Z,96124.50
2022-11-29T10:47:09.447Z,96128.88
2022-11-29T10:49:38.039Z,96111.06
2022-11-29T10:52:05.684Z,96110.03
2022-11-29T10:54:41.670Z,96120.84
2022-11-29T10:57:22.929Z,96115.53
2022-11-29T11:00:00.300Z,96112.34
2022-11-29T11:02:27.853Z,96121.94
2022-11-29T11:04:54.645Z,96119.09
2022-11-29T11:07:35.699Z,96114.66
2022-11-29T11:10:17.438Z,96119.44
2022-11-29T11:13:04.658Z,96118.03
2022-11-29T11:15:32.443Z,96116.19
2022-11-29T11:18:07.132Z,96114.84
2022-11-29T11:20:37.890Z,96121.34
2022-11-29T11:23:07.595Z,96117.75
2022-11-29T11:25:39.001Z,96118.69
2022-11-29T11:28:21.323Z,96108.78
2022-11-29T11:30:59.223Z,96110.47
2022-11-29T11:33:28.831Z,96115.06
2022-11-29T11:36:04.206Z,96106.88
2022-11-29T11:38:31.384Z,96103.69
2022-11-29T11:41:44.689Z,96106.34
2022-11-29T11:44:47.021Z,96110.63
2022-11-29T11:47:21.764Z,96101.34
2022-11-29T11:50:00.369Z,96098.41
2022-11-29T11:52:32.962Z,96103.16
2022-11-29T11:55:21.750Z,96102.06
2022-11-29T11:58:12.561Z,96113.75
2022-11-29T12:01:03.579Z,96099.63
2022-11-29T12:03:45.230Z,96110.50
2022-11-29T12:06:40.152Z,96102.75
2022-11-29T12:09:09.984Z,96105.63
2022-11-29T12:12:03.563Z,96114.09
2022-11-29T12:14:55.958Z,96106.09
2022-11-29T12:17:32.624Z,96107.75
2022-11-29T12:20:04.546Z,96103.44
2022-11-29T12:22:41.511Z,96106.09
2022-11-29T12:25:19.505Z,96107.22
2022-11-29T12:27:46.238Z,96105.06
2022-11-29T12:30:14.673Z,96106.09
2022-11-29T12:33:02.957Z,96121.09
2022-11-29T12:35:44.766Z,96104.63
2022-11-29T12:38:48.690Z,96116.22
2022-11-29T12:41:16.273Z,96118.44
2022-11-29T12:43:51.816Z,96118.91
2022-11-29T12:46:26.051Z,96109.34
2022-11-29T12:49:06.457Z,96117.31
2022-11-29T12:51:51.221Z,96117.31
2022-11-29T12:54:31.389Z,96119.88
2022-11-29T12:57:22.907Z,96127.38
2022-11-29T13:00:11.888Z,96131.31
2022-11-29T13:03:00.227Z,96128.41
2022-11-29T13:05:52.201Z,96126.00
2022-11-29T13:08:43.065Z,96133.28
2022-11-29T13:11:23.697Z,96133.22
2022-11-29T13:14:13.807Z,96141.16
2022-11-29T13:17:05.017Z,96141.59
2022-11-29T13:19:42.654Z,96144.75
2022-11-29T13:22:43.963Z,96143.81
2022-11-29T13:25:32.141Z,96147.44
2022-11-29T13:28:03.416Z,96144.88
2022-11-29T13:30:30.186Z,96152.81
2022-11-29T13:33:13.865Z,96156.06
2022-11-29T13:35:57.868Z,96143.59
2022-11-29T13:38:53.789Z,96159.16
2022-11-29T13:41:43.710Z,96151.53
2022-11-29T13:44:38.263Z,96150.69
2022-11-29T13:47:15.705Z,96152.09
2022-11-29T13:49:57.052Z,96151.81
2022-11-29T13:52:36.591Z,96151.81
2022-11-29T13:55:12.365Z,96157.63
2022-11-29T13:58:15.067Z,96163.47
2022-11-29T14:00:49.781Z,96167.69
2022-11-29T14:03:22.167Z,96160.03
2022-11-29T14:06:09.282Z,96168.28
2022-11-29T14:09:10.312Z,96174.63
2022-11-29T14:11:31.534Z,96165.72
2022-11-29T14:14:09.034Z,96168.19
2022-11-29T14:17:00.037Z,96175.63
2022-11-29T14:19:33.471Z,96169.44
2022-11-29T14:22:03.450Z,96166.03
2022-11-29T14:24:33.292Z,96168.50
2022-11-29T14:27:23.162Z,96164.00
2022-11-29T14:29:49.876Z,96172.75
2022-11-29T14:32:45.912Z,96176.03
2022-11-29T14:35:13.140Z,96172.53
2022-11-29T14:38:19.237Z,96170.44
2022-11-29T14:40:54.436Z,96170.44
2022-11-29T14:43:36.153Z,96172.63
2022-11-29T14:46:23.555Z,96171.16
2022-11-29T14:48:55.498Z,96176.41
2022-11-29T14:51:25.082Z,96174.97
2022-11-29T14:54:05.035Z,96175.34
2022-11-29T14:56:42.663Z,96176.75
2022-11-29T14:59:46.998Z,96184.09
2022-11-29T15:02:37.999Z,96186.75
2022-11-29T15:05:29.318Z,96191.69
2022-11-29T15:08:20.823Z,96202.91
2022-11-29T15:10:54.241Z,96198.06
2022-11-29T15:13:31.305Z,96202.66
2022-11-29T15:16:22.004Z,96207.47
2022-11-29T15:19:18.452Z,96205.06
2022-11-29T15:22:20.054Z,96210.88
2022-11-29T15:24:54.973Z,96195.97
2022-11-29T15:27:22.682Z,96204.94
2022-11-29T15:29:49.534Z,96212.94
2022-11-29T15:32:32.534Z,96216.69
2022-11-29T15:34:59.702Z,96219.81
2022-11-29T15:37:32.094Z,96228.13
2022-11-29T15:40:20.340Z,96222.28
2022-11-29T15:43:15.455Z,96212.22
2022-11-29T15:45:48.419Z,96218.81
2022-11-29T15:48:28.903Z,96215.97
2022-11-29T15:51:04.870Z,96204.56
2022-11-29T15:53:31.403Z,96221.72
2022-11-29T15:56:01.207Z,96216.91
2022-11-29T15:58:32.974Z,96220.47
2022-11-29T16:01:01.254Z,96213.66
2022-11-29T16:03:34.684Z,96213.13
2022-11-29T16:06:20.332Z,96216.78
2022-11-29T16:08:48.342Z,96215.09
2022-11-29T16:11:23.233Z,96217.50
2022-11-29T16:14:04.845Z,96220.50
2022-11-29T16:16:34.214Z,96223.75
2022-11-29T16:19:18.156Z,96223.75
2022-11-29T16:21:44.982Z,96234.78
2022-11-29T16:24:14.496Z,96237.47
2022-11-29T16:26:46.114Z,96250.75
2022-11-29T16:29:34.013Z,96248.84
2022-11-29T16:32:23.379Z,96244.63
2022-11-29T16:34:50.137Z,96246.03
2022-11-29T16:37:25.514Z,96245.50
2022-11-29T16:40:01.466Z,96253.09
2022-11-29T16:42:30.349Z,96265.00
2022-11-29T16:45:07.832Z,96264.44
2022-11-29T16:48:24.592Z,96260.81
2022-11-29T16:51:09.902Z,96258.72
2022-11-29T16:53:47.701Z,96254.78
2022-11-29T16:56:16.893Z,96258.53
2022-11-29T16:59:25.498Z,96252.75
2022-11-29T17:01:32.666Z,96263.53
2022-11-29T17:04:00.175Z,96263.13
2022-11-29T17:06:28.665Z,96258.81
2022-11-29T17:08:57.236Z,96272.00
2022-11-29T17:11:23.944Z,96273.66
2022-11-29T17:13:51.014Z,96271.97
2022-11-29T17:16:20.837Z,96267.53
2022-11-29T17:18:48.212Z,96267.47
2022-11-29T17:21:21.905Z,96272.34
2022-11-29T17:23:49.030Z,96262.22
2022-11-29T17:26:16.235Z,96265.53
2022-11-29T17:28:44.281Z,96273.19
2022-11-29T17:31:12.610Z,96283.44
2022-11-29T17:33:39.375Z,96277.09
2022-11-29T17:36:12.187Z,96277.69
2022-11-29T17:38:38.910Z,96275.56
2022-11-29T17:41:13.190Z,96278.97
2022-11-29T17:43:40.600Z,96276.03
2022-11-29T17:46:13.431Z,96272.78
2022-11-29T17:48:40.372Z,96265.41
2022-11-29T17:51:22.779Z,96270.59
2022-11-29T17:53:55.234Z,96279.84
2022-11-29T17:56:24.753Z,96271.84
2022-11-29T17:58:55.863Z,96269.63
2022-11-29T18:01:24.980Z,96274.50
2022-11-29T18:03:54.673Z,96279.41
2022-11-29T18:06:24.351Z,96284.22
2022-11-29T18:08:56.282Z,96286.84
2022-11-29T18:11:41.659Z,96292.22
2022-11-29T18:14:13.284Z,96282.63
2022-11-29T18:16:40.246Z,96282.03
2022-11-29T18:19:09.349Z,96289.03
2022-11-29T18:21:36.622Z,96296.81
2022-11-29T18:24:05.842Z,96298.97
2022-11-29T18:26:33.913Z,96296.47
2022-11-29T18:29:00.758Z,96306.16
2022-11-29T18:31:29.558Z,96305.06
2022-11-29T18:33:58.986Z,96307.13
2022-11-29T18:36:28.195Z,96317.66
2022-11-29T18:38:59.924Z,96309.56
2022-11-29T18:41:28.419Z,96313.69
2022-11-29T18:43:58.950Z,96313.69
2022-11-29T18:46:26.541Z,96318.75
2022-11-29T18:48:53.190Z,96329.91
2022-11-29T18:51:20.791Z,96326.13
2022-11-29T18:53:47.691Z,96311.88
2022-11-29T18:56:19.694Z,96314.13
2022-11-29T18:58:48.334Z,96315.16
2022-11-29T19:01:17.637Z,96322.59
2022-11-29T19:03:47.730Z,96321.00
2022-11-29T19:06:16.554Z,96324.72
2022-11-29T19:08:43.472Z,96331.56
2022-11-29T19:11:13.205Z,96329.94
2022-11-29T19:13:40.732Z,96330.81
2022-11-29T19:16:13.096Z,96327.69
2022-11-29T19:18:40.556Z,96332.09
2022-11-29T19:21:09.819Z,96330.09
2022-11-29T19:23:36.418Z,96325.84
2022-11-29T19:26:11.110Z,96324.13
2022-11-29T19:28:39.665Z,96330.41
2022-11-29T19:31:07.486Z,96328.94
2022-11-29T19:33:35.202Z,96337.16
2022-11-29T19:36:12.955Z,96330.72
2022-11-29T19:38:40.010Z,96340.72
2022-11-29T19:41:18.150Z,96333.63
2022-11-29T19:43:45.761Z,96336.53
2022-11-29T19:46:18.505Z,96335.06
2022-11-29T19:48:45.467Z,96338.41
2022-11-29T19:51:13.457Z,96344.84
2022-11-29T19:53:40.194Z,96352.88
2022-11-29T19:56:09.300Z,96344.34
2022-11-29T19:58:36.059Z,96350.78
2022-11-29T20:01:07.657Z,96351.34
2022-11-29T20:03:34.853Z,96348.53
2022-11-29T20:06:02.085Z,96346.78
2022-11-29T20:08:29.275Z,96352.53
2022-11-29T20:10:55.997Z,96350.75
2022-11-29T20:13:22.932Z,96346.00
2022-11-29T20:15:49.590Z,96348.69
2022-11-29T20:18:16.232Z,96360.84
2022-11-29T20:20:42.821Z,96360.63
2022-11-29T20:23:09.437Z,96351.06
2022-11-29T20:25:36.815Z,96352.16
2022-11-29T20:28:04.243Z,96352.50
2022-11-29T20:30:30.873Z,96352.91
2022-11-29T20:32:57.597Z,96364.88
2022-11-29T20:35:24.420Z,96361.63
2022-11-29T20:38:28.367Z,96370.28
2022-11-29T20:41:08.266Z,96363.44
2022-11-29T20:43:37.571Z,96360.81
2022-11-29T20:46:04.414Z,96362.72
2022-11-29T20:48:31.257Z,96357.69
2022-11-29T20:51:00.841Z,96364.69
2022-11-29T20:53:36.101Z,96356.22
2022-11-29T20:56:04.785Z,96357.72
2022-11-29T20:58:31.645Z,96354.03
2022-11-29T21:00:58.750Z,96367.81
2022-11-29T21:03:26.088Z,96359.34
2022-11-29T21:05:53.202Z,96365.41
2022-11-29T21:08:23.532Z,96365.28
2022-11-29T21:10:51.096Z,96364.78
2022-11-29T21:13:20.517Z,96366.25
2022-11-29T21:15:47.760Z,96362.41
2022-11-29T21:18:23.584Z,96360.56
2022-11-29T21:21:09.966Z,96353.75
2022-11-29T21:23:49.638Z,96368.59
2022-11-29T21:26:51.528Z,96369.31
2022-11-29T21:29:21.002Z,96370.97
2022-11-29T21:31:51.345Z,96364.94
2022-11-29T21:34:18.342Z,96366.97
2022-11-29T21:36:48.717Z,96356.97
2022-11-29T21:39:16.585Z,96357.09
2022-11-29T21:41:43.181Z,96362.41
2022-11-29T21:44:10.152Z,96368.25
2022-11-29T21:46:36.856Z,96367.22
2022-11-29T21:49:04.319Z,96365.13
2022-11-29T21:51:30.877Z,96367.31
2022-11-29T21:53:57.490Z,96355.91
2022-11-29T21:56:24.113Z,96358.84
2022-11-29T21:58:50.711Z,96363.16
2022-11-29T22:01:20.062Z,96370.09
2022-11-29T22:03:47.423Z,96364.22
2022-11-29T22:06:18.581Z,96363.59
2022-11-29T22:08:45.182Z,96368.97
2022-11-29T22:11:14.646Z,96364.53
2022-11-29T22:14:02.460Z,96374.69
2022-11-29T22:16:29.935Z,96372.84
2022-11-29T22:18:56.579Z,96366.94
2022-11-29T22:21:23.288Z,96363.91
2022-11-29T22:23:51.603Z,96359.75
2022-11-29T22:26:18.201Z,96355.63
2022-11-29T22:28:44.780Z,96355.16
2022-11-29T22:31:12.815Z,96364.78
2022-11-29T22:33:40.037Z,96364.53
2022-11-29T22:36:11.743Z,96361.59
2022-11-29T22:38:39.049Z,96366.41
2022-11-29T22:41:07.991Z,96369.31
2022-11-29T22:43:35.456Z,96373.41
2022-11-29T22:46:05.177Z,96374.16
2022-11-29T22:48:38.176Z,96373.13
2022-11-29T22:51:14.394Z,96368.09
2022-11-29T22:53:43.298Z,96375.78
2022-11-29T22:56:11.502Z,96373.38
2022-11-29T22:58:38.422Z,96383.81
2022-11-29T23:01:14.750Z,96377.09
2022-11-29T23:03:44.016Z,96378.47
2022-11-29T23:06:13.621Z,96383.78
2022-11-29T23:08:42.033Z,96382.38
2022-11-29T23:11:11.831Z,96382.47
2022-11-29T23:13:41.173Z,96382.38
2022-11-29T23:16:11.833Z,96389.97
2022-11-29T23:18:40.061Z,96384.34
2022-11-29T23:21:10.324Z,96381.13
2022-11-29T23:23:37.412Z,96394.47
2022-11-29T23:26:05.506Z,96381.31
2022-11-29T23:28:32.882Z,96387.34
2022-11-29T23:31:00.073Z,96383.97
2022-11-29T23:33:27.583Z,96380.97
2022-11-29T23:36:05.518Z,96377.59
2022-11-29T23:38:32.965Z,96386.91
2022-11-29T23:40:59.658Z,96383.22
2022-11-29T23:43:29.766Z,96381.94
2022-11-29T23:45:56.754Z,96382.44
2022-11-29T23:48:23.606Z,96380.34
2022-11-29T23:50:50.625Z,96376.25
2022-11-29T23:53:18.757Z,96377.75
2022-11-29T23:55:47.897Z,96375.34
2022-11-29T23:58:14.462Z,96382.75
